sensor_id;sensor_type;location;lat;lon;timestamp;temperature;humidity
6863;DHT22;3470;48.738;9.616;2023-03-11T17:59:22;3.00;86.80
6863;DHT22;3470;48.738;9.616;2023-03-11T18:01:47;2.80;86.90
6863;DHT22;3470;48.738;9.616;2023-03-11T18:04:13;2.70;86.80
6863;DHT22;3470;48.738;9.616;2023-03-11T18:34:24;1.00;92.60
6863;DHT22;3470;48.738;9.616;2023-03-11T18:36:49;0.80;94.10
6863;DHT22;3470;48.738;9.616;2023-03-11T18:39:15;0.60;94.80
6863;DHT22;3470;48.738;9.616;2023-03-11T18:41:40;0.50;95.40
6863;DHT22;3470;48.738;9.616;2023-03-11T18:44:07;0.30;95.90
6863;DHT22;3470;48.738;9.616;2023-03-11T18:46:32;0.20;96.50
6863;DHT22;3470;48.738;9.616;2023-03-11T18:49:00;0.20;96.90
6863;DHT22;3470;48.738;9.616;2023-03-11T18:51:27;0.10;97.00
6863;DHT22;3470;48.738;9.616;2023-03-11T18:53:52;0.10;97.60
6863;DHT22;3470;48.738;9.616;2023-03-11T18:56:18;0.10;97.00
6863;DHT22;3470;48.738;9.616;2023-03-11T18:58:44;0.10;96.90
6863;DHT22;3470;48.738;9.616;2023-03-11T19:01:17;0.00;96.90
6863;DHT22;3470;48.738;9.616;2023-03-11T19:03:48;-0.10;96.80
6863;DHT22;3470;48.738;9.616;2023-03-11T19:06:14;-0.20;96.80
6863;DHT22;3470;48.738;9.616;2023-03-11T19:08:41;-0.20;96.70
6863;DHT22;3470;48.738;9.616;2023-03-11T19:11:15;-0.20;96.60
6863;DHT22;3470;48.738;9.616;2023-03-11T19:13:41;-0.20;96.60
6863;DHT22;3470;48.738;9.616;2023-03-11T19:16:08;-0.30;96.40
6863;DHT22;3470;48.738;9.616;2023-03-11T19:18:34;-0.30;96.30
6863;DHT22;3470;48.738;9.616;2023-03-11T19:21:03;-0.40;96.20
6863;DHT22;3470;48.738;9.616;2023-03-11T19:23:29;-0.40;96.10
6863;DHT22;3470;48.738;9.616;2023-03-11T19:25:55;-0.50;96.00
6863;DHT22;3470;48.738;9.616;2023-03-11T19:28:21;-0.60;95.80
6863;DHT22;3470;48.738;9.616;2023-03-11T19:30:51;-0.60;95.60
6863;DHT22;3470;48.738;9.616;2023-03-11T19:33:17;-0.70;95.70
6863;DHT22;3470;48.738;9.616;2023-03-11T19:35:43;-0.60;95.70
6863;DHT22;3470;48.738;9.616;2023-03-11T19:38:09;-0.60;95.70
6863;DHT22;3470;48.738;9.616;2023-03-11T19:40:34;-0.60;95.60
6863;DHT22;3470;48.738;9.616;2023-03-11T19:43:00;-0.70;95.90
6863;DHT22;3470;48.738;9.616;2023-03-11T19:45:27;-0.80;96.10
6863;DHT22;3470;48.738;9.616;2023-03-11T19:47:54;-0.80;96.40
6863;DHT22;3470;48.738;9.616;2023-03-11T19:50:20;-0.80;96.40
6863;DHT22;3470;48.738;9.616;2023-03-11T19:52:45;-0.80;96.50
6863;DHT22;3470;48.738;9.616;2023-03-11T19:55:11;-0.90;96.50
6863;DHT22;3470;48.738;9.616;2023-03-11T19:57:36;-0.90;96.60
6863;DHT22;3470;48.738;9.616;2023-03-11T20:00:03;-1.00;97.70
6863;DHT22;3470;48.738;9.616;2023-03-11T20:02:29;-1.10;98.40
6863;DHT22;3470;48.738;9.616;2023-03-11T20:04:55;-1.30;98.40
6863;DHT22;3470;48.738;9.616;2023-03-11T20:07:21;-1.30;98.70
6863;DHT22;3470;48.738;9.616;2023-03-11T20:09:46;-1.30;98.50
6863;DHT22;3470;48.738;9.616;2023-03-11T20:12:12;-1.30;98.10
6863;DHT22;3470;48.738;9.616;2023-03-11T20:14:39;-1.30;98.40
6863;DHT22;3470;48.738;9.616;2023-03-11T20:17:05;-1.30;99.10
6863;DHT22;3470;48.738;9.616;2023-03-11T20:19:32;-1.40;99.90
6863;DHT22;3470;48.738;9.616;2023-03-11T20:21:58;-1.50;99.90
6863;DHT22;3470;48.738;9.616;2023-03-11T20:24:23;-1.60;99.90
6863;DHT22;3470;48.738;9.616;2023-03-11T20:26:49;-1.60;99.90
6863;DHT22;3470;48.738;9.616;2023-03-11T20:29:15;-1.70;99.90
6863;DHT22;3470;48.738;9.616;2023-03-11T20:31:41;-1.70;99.90
6863;DHT22;3470;48.738;9.616;2023-03-11T20:34:08;-1.80;99.90
6863;DHT22;3470;48.738;9.616;2023-03-11T20:36:34;-1.70;99.90
6863;DHT22;3470;48.738;9.616;2023-03-11T20:39:00;-1.70;99.90
6863;DHT22;3470;48.738;9.616;2023-03-11T20:41:26;-1.70;99.90
6863;DHT22;3470;48.738;9.616;2023-03-11T20:43:54;-1.70;99.90
6863;DHT22;3470;48.738;9.616;2023-03-11T20:46:20;-1.70;99.70
6863;DHT22;3470;48.738;9.616;2023-03-11T20:48:46;-1.70;99.40
6863;DHT22;3470;48.738;9.616;2023-03-11T20:51:14;-1.70;99.60
6863;DHT22;3470;48.738;9.616;2023-03-11T20:53:40;-1.80;99.60
6863;DHT22;3470;48.738;9.616;2023-03-11T20:56:08;-1.80;99.90
6863;DHT22;3470;48.738;9.616;2023-03-11T20:58:35;-1.90;99.90
6863;DHT22;3470;48.738;9.616;2023-03-11T21:01:08;-1.90;99.90
6863;DHT22;3470;48.738;9.616;2023-03-11T21:03:34;-2.00;99.90
6863;DHT22;3470;48.738;9.616;2023-03-11T21:05:59;-1.90;99.90
6863;DHT22;3470;48.738;9.616;2023-03-11T21:08:25;-2.00;99.90
6863;DHT22;3470;48.738;9.616;2023-03-11T21:10:50;-2.00;99.90
6863;DHT22;3470;48.738;9.616;2023-03-11T21:13:16;-2.10;99.90
6863;DHT22;3470;48.738;9.616;2023-03-11T21:15:42;-2.20;99.90
6863;DHT22;3470;48.738;9.616;2023-03-11T21:18:07;-2.30;99.90
6863;DHT22;3470;48.738;9.616;2023-03-11T21:20:33;-2.30;99.90
6863;DHT22;3470;48.738;9.616;2023-03-11T21:22:58;-2.30;99.90
6863;DHT22;3470;48.738;9.616;2023-03-11T21:25:24;-2.40;99.90
6863;DHT22;3470;48.738;9.616;2023-03-11T21:27:49;-2.30;99.90
6863;DHT22;3470;48.738;9.616;2023-03-11T21:30:15;-2.30;99.90
6863;DHT22;3470;48.738;9.616;2023-03-11T21:32:41;-2.30;99.90
6863;DHT22;3470;48.738;9.616;2023-03-11T21:35:06;-2.30;99.90
6863;DHT22;3470;48.738;9.616;2023-03-11T21:37:32;-2.40;99.90
6863;DHT22;3470;48.738;9.616;2023-03-11T21:39:58;-2.50;99.90
6863;DHT22;3470;48.738;9.616;2023-03-11T21:42:23;-2.60;99.90
6863;DHT22;3470;48.738;9.616;2023-03-11T21:44:49;-2.50;99.90
6863;DHT22;3470;48.738;9.616;2023-03-11T21:47:15;-2.50;99.90
6863;DHT22;3470;48.738;9.616;2023-03-11T21:49:41;-2.50;99.90
6863;DHT22;3470;48.738;9.616;2023-03-11T21:52:06;-2.40;99.90
6863;DHT22;3470;48.738;9.616;2023-03-11T21:54:32;-2.30;99.90
6863;DHT22;3470;48.738;9.616;2023-03-11T21:56:58;-2.30;99.90
6863;DHT22;3470;48.738;9.616;2023-03-11T21:59:26;-2.30;99.90
6863;DHT22;3470;48.738;9.616;2023-03-11T22:01:51;-2.30;99.90
6863;DHT22;3470;48.738;9.616;2023-03-11T22:04:17;-2.30;99.90
6863;DHT22;3470;48.738;9.616;2023-03-11T22:06:43;-2.40;99.90
6863;DHT22;3470;48.738;9.616;2023-03-11T22:09:08;-2.40;99.90
6863;DHT22;3470;48.738;9.616;2023-03-11T22:11:34;-2.50;99.90
6863;DHT22;3470;48.738;9.616;2023-03-11T22:13:59;-2.60;99.90
6863;DHT22;3470;48.738;9.616;2023-03-11T22:16:25;-2.60;99.90
6863;DHT22;3470;48.738;9.616;2023-03-11T22:18:51;-2.60;99.90
6863;DHT22;3470;48.738;9.616;2023-03-11T22:21:18;-2.50;99.90
6863;DHT22;3470;48.738;9.616;2023-03-11T22:23:45;-2.50;99.90
6863;DHT22;3470;48.738;9.616;2023-03-11T22:26:11;-2.50;99.90
6863;DHT22;3470;48.738;9.616;2023-03-11T22:28:37;-2.50;99.90
6863;DHT22;3470;48.738;9.616;2023-03-11T22:31:07;-2.50;99.90
6863;DHT22;3470;48.738;9.616;2023-03-11T22:33:33;-2.40;99.90
6863;DHT22;3470;48.738;9.616;2023-03-11T22:35:59;-2.40;99.90
6863;DHT22;3470;48.738;9.616;2023-03-11T22:38:26;-2.40;99.90
6863;DHT22;3470;48.738;9.616;2023-03-11T22:40:52;-2.50;99.90
6863;DHT22;3470;48.738;9.616;2023-03-11T22:43:18;-2.50;99.90
6863;DHT22;3470;48.738;9.616;2023-03-11T22:45:44;-2.50;99.90
6863;DHT22;3470;48.738;9.616;2023-03-11T22:48:10;-2.50;99.90
6863;DHT22;3470;48.738;9.616;2023-03-11T22:50:39;-2.50;99.90
6863;DHT22;3470;48.738;9.616;2023-03-11T22:53:06;-2.50;99.90
6863;DHT22;3470;48.738;9.616;2023-03-11T22:55:31;-2.60;99.90
6863;DHT22;3470;48.738;9.616;2023-03-11T22:57:57;-2.70;99.90
6863;DHT22;3470;48.738;9.616;2023-03-11T23:00:24;-2.70;99.90
6863;DHT22;3470;48.738;9.616;2023-03-11T23:02:54;-2.70;99.90
6863;DHT22;3470;48.738;9.616;2023-03-11T23:05:20;-2.80;99.90
6863;DHT22;3470;48.738;9.616;2023-03-11T23:07:45;-2.80;99.90
6863;DHT22;3470;48.738;9.616;2023-03-11T23:10:13;-2.80;99.90
6863;DHT22;3470;48.738;9.616;2023-03-11T23:12:39;-2.70;99.90
6863;DHT22;3470;48.738;9.616;2023-03-11T23:15:09;-2.70;99.90
6863;DHT22;3470;48.738;9.616;2023-03-11T23:17:35;-2.70;99.90
6863;DHT22;3470;48.738;9.616;2023-03-11T23:20:03;-2.80;99.90
6863;DHT22;3470;48.738;9.616;2023-03-11T23:22:29;-2.80;99.90
6863;DHT22;3470;48.738;9.616;2023-03-11T23:24:55;-2.80;99.90
6863;DHT22;3470;48.738;9.616;2023-03-11T23:27:20;-2.80;99.90
6863;DHT22;3470;48.738;9.616;2023-03-11T23:29:46;-2.90;99.90
6863;DHT22;3470;48.738;9.616;2023-03-11T23:32:13;-2.90;99.90
6863;DHT22;3470;48.738;9.616;2023-03-11T23:34:38;-2.90;99.90
6863;DHT22;3470;48.738;9.616;2023-03-11T23:37:04;-2.90;99.90
6863;DHT22;3470;48.738;9.616;2023-03-11T23:39:30;-3.00;99.90
6863;DHT22;3470;48.738;9.616;2023-03-11T23:41:55;-3.00;99.90
6863;DHT22;3470;48.738;9.616;2023-03-11T23:44:22;-3.10;99.90
6863;DHT22;3470;48.738;9.616;2023-03-11T23:46:48;-3.00;99.90
6863;DHT22;3470;48.738;9.616;2023-03-11T23:49:13;-3.00;99.90
6863;DHT22;3470;48.738;9.616;2023-03-11T23:51:39;-3.10;99.90
6863;DHT22;3470;48.738;9.616;2023-03-11T23:54:06;-3.20;99.90
6863;DHT22;3470;48.738;9.616;2023-03-11T23:56:31;-3.30;99.90
6863;DHT22;3470;48.738;9.616;2023-03-11T23:58:57;-3.30;99.90
